sensor_id;sensor_type;location;lat;lon;timestamp;pressure;altitude;pressure_sealevel;temperature;humidity
34065;BME280;20339;49.754;20.158;2024-01-30T00:00:24;98419.98;;;2.01;66.48
34065;BME280;20339;49.754;20.158;2024-01-30T00:03:15;98419.28;;;2.06;66.57
34065;BME280;20339;49.754;20.158;2024-01-30T00:05:47;98418.50;;;2.11;65.89
34065;BME280;20339;49.754;20.158;2024-01-30T00:08:23;98417.09;;;2.16;65.59
34065;BME280;20339;49.754;20.158;2024-01-30T00:10:58;98421.88;;;2.15;65.61
34065;BME280;20339;49.754;20.158;2024-01-30T00:13:32;98416.16;;;2.10;65.85
34065;BME280;20339;49.754;20.158;2024-01-30T00:16:06;98414.00;;;2.09;65.83
34065;BME280;20339;49.754;20.158;2024-01-30T00:18:38;98413.77;;;2.07;65.65
34065;BME280;20339;49.754;20.158;2024-01-30T00:21:10;98408.96;;;2.08;65.14
34065;BME280;20339;49.754;20.158;2024-01-30T00:23:41;98406.23;;;2.12;65.08
34065;BME280;20339;49.754;20.158;2024-01-30T00:26:12;98409.89;;;2.19;64.63
34065;BME280;20339;49.754;20.158;2024-01-30T00:28:50;98403.84;;;2.18;64.77
34065;BME280;20339;49.754;20.158;2024-01-30T00:31:23;98408.34;;;2.20;64.63
34065;BME280;20339;49.754;20.158;2024-01-30T00:33:57;98400.08;;;2.25;64.18
34065;BME280;20339;49.754;20.158;2024-01-30T00:36:28;98407.98;;;2.29;64.17
34065;BME280;20339;49.754;20.158;2024-01-30T00:39:01;98405.55;;;2.32;63.87
34065;BME280;20339;49.754;20.158;2024-01-30T00:41:35;98403.89;;;2.34;63.84
34065;BME280;20339;49.754;20.158;2024-01-30T00:44:09;98408.06;;;2.36;63.31
34065;BME280;20339;49.754;20.158;2024-01-30T00:46:44;98406.47;;;2.32;63.30
34065;BME280;20339;49.754;20.158;2024-01-30T00:49:18;98412.51;;;2.25;63.53
34065;BME280;20339;49.754;20.158;2024-01-30T00:51:55;98403.99;;;2.17;63.97
34065;BME280;20339;49.754;20.158;2024-01-30T00:54:26;98403.38;;;2.11;64.29
34065;BME280;20339;49.754;20.158;2024-01-30T00:57:00;98402.45;;;2.09;64.31
34065;BME280;20339;49.754;20.158;2024-01-30T00:59:31;98396.86;;;2.10;64.27
34065;BME280;20339;49.754;20.158;2024-01-30T01:02:02;98401.81;;;2.10;64.01
34065;BME280;20339;49.754;20.158;2024-01-30T01:04:35;98394.39;;;2.08;64.21
34065;BME280;20339;49.754;20.158;2024-01-30T01:07:11;98383.94;;;2.05;64.23
34065;BME280;20339;49.754;20.158;2024-01-30T01:09:42;98393.29;;;2.12;64.02
34065;BME280;20339;49.754;20.158;2024-01-30T01:12:18;98385.41;;;2.22;63.33
34065;BME280;20339;49.754;20.158;2024-01-30T01:14:55;98389.98;;;2.28;63.14
34065;BME280;20339;49.754;20.158;2024-01-30T01:17:26;98387.33;;;2.28;62.84
34065;BME280;20339;49.754;20.158;2024-01-30T01:19:59;98394.65;;;2.33;62.66
34065;BME280;20339;49.754;20.158;2024-01-30T01:22:33;98384.52;;;2.30;62.59
34065;BME280;20339;49.754;20.158;2024-01-30T01:25:08;98380.38;;;2.25;62.54
34065;BME280;20339;49.754;20.158;2024-01-30T01:27:41;98376.37;;;2.21;62.31
34065;BME280;20339;49.754;20.158;2024-01-30T01:30:15;98376.70;;;2.15;62.55
34065;BME280;20339;49.754;20.158;2024-01-30T01:32:53;98382.67;;;2.10;62.53
34065;BME280;20339;49.754;20.158;2024-01-30T01:35:28;98381.80;;;2.06;62.66
34065;BME280;20339;49.754;20.158;2024-01-30T01:37:59;98392.45;;;2.01;62.93
34065;BME280;20339;49.754;20.158;2024-01-30T01:40:32;98390.41;;;1.96;62.91
34065;BME280;20339;49.754;20.158;2024-01-30T01:43:12;98385.23;;;1.92;63.11
34065;BME280;20339;49.754;20.158;2024-01-30T01:45:43;98386.55;;;1.88;63.01
34065;BME280;20339;49.754;20.158;2024-01-30T01:48:15;98395.91;;;1.84;63.29
34065;BME280;20339;49.754;20.158;2024-01-30T01:50:50;98391.30;;;1.83;63.40
34065;BME280;20339;49.754;20.158;2024-01-30T01:53:25;98383.50;;;1.78;63.42
34065;BME280;20339;49.754;20.158;2024-01-30T01:56:02;98389.29;;;1.77;63.53
34065;BME280;20339;49.754;20.158;2024-01-30T01:58:34;98390.14;;;1.72;63.66
34065;BME280;20339;49.754;20.158;2024-01-30T02:01:06;98388.30;;;1.73;63.73
34065;BME280;20339;49.754;20.158;2024-01-30T02:03:46;98388.16;;;1.74;63.46
34065;BME280;20339;49.754;20.158;2024-01-30T02:06:18;98392.49;;;1.74;63.33
34065;BME280;20339;49.754;20.158;2024-01-30T02:08:50;98392.14;;;1.74;63.57
34065;BME280;20339;49.754;20.158;2024-01-30T02:11:24;98390.67;;;1.70;63.61
34065;BME280;20339;49.754;20.158;2024-01-30T02:13:55;98385.50;;;1.71;63.65
34065;BME280;20339;49.754;20.158;2024-01-30T02:16:26;98380.50;;;1.71;63.62
34065;BME280;20339;49.754;20.158;2024-01-30T02:18:58;98378.37;;;1.68;63.58
34065;BME280;20339;49.754;20.158;2024-01-30T02:21:32;98383.02;;;1.75;63.53
34065;BME280;20339;49.754;20.158;2024-01-30T02:24:04;98376.16;;;1.77;63.38
34065;BME280;20339;49.754;20.158;2024-01-30T02:26:38;98381.58;;;1.79;63.22
34065;BME280;20339;49.754;20.158;2024-01-30T02:29:11;98380.84;;;1.78;62.98
34065;BME280;20339;49.754;20.158;2024-01-30T02:31:42;98382.60;;;1.74;63.36
34065;BME280;20339;49.754;20.158;2024-01-30T02:34:18;98381.17;;;1.68;63.24
34065;BME280;20339;49.754;20.158;2024-01-30T02:36:57;98373.45;;;1.70;63.28
34065;BME280;20339;49.754;20.158;2024-01-30T02:39:28;98369.84;;;1.72;62.93
34065;BME280;20339;49.754;20.158;2024-01-30T02:42:04;98370.38;;;1.74;63.05
34065;BME280;20339;49.754;20.158;2024-01-30T02:44:36;98365.94;;;1.66;63.33
34065;BME280;20339;49.754;20.158;2024-01-30T02:47:08;98362.66;;;1.61;63.14
34065;BME280;20339;49.754;20.158;2024-01-30T02:49:44;98363.28;;;1.63;63.47
34065;BME280;20339;49.754;20.158;2024-01-30T02:52:18;98361.42;;;1.61;63.21
34065;BME280;20339;49.754;20.158;2024-01-30T02:54:52;98355.83;;;1.59;63.35
34065;BME280;20339;49.754;20.158;2024-01-30T02:57:24;98357.48;;;1.55;63.41
34065;BME280;20339;49.754;20.158;2024-01-30T02:59:57;98363.66;;;1.54;63.75
34065;BME280;20339;49.754;20.158;2024-01-30T03:02:28;98361.48;;;1.58;63.66
34065;BME280;20339;49.754;20.158;2024-01-30T03:05:05;98363.83;;;1.59;63.35
34065;BME280;20339;49.754;20.158;2024-01-30T03:07:41;98359.67;;;1.69;63.02
34065;BME280;20339;49.754;20.158;2024-01-30T03:10:16;98360.19;;;1.73;62.61
34065;BME280;20339;49.754;20.158;2024-01-30T03:12:48;98359.55;;;1.74;62.64
34065;BME280;20339;49.754;20.158;2024-01-30T03:15:22;98355.84;;;1.70;62.64
34065;BME280;20339;49.754;20.158;2024-01-30T03:17:54;98354.32;;;1.66;62.52
34065;BME280;20339;49.754;20.158;2024-01-30T03:20:25;98354.21;;;1.67;62.63
34065;BME280;20339;49.754;20.158;2024-01-30T03:23:01;98353.12;;;1.64;62.45
34065;BME280;20339;49.754;20.158;2024-01-30T03:25:37;98342.72;;;1.67;62.41
34065;BME280;20339;49.754;20.158;2024-01-30T03:28:13;98349.11;;;1.69;62.27
34065;BME280;20339;49.754;20.158;2024-01-30T03:30:47;98345.94;;;1.62;62.67
34065;BME280;20339;49.754;20.158;2024-01-30T03:33:20;98351.30;;;1.60;62.93
34065;BME280;20339;49.754;20.158;2024-01-30T03:35:51;98348.66;;;1.54;63.00
34065;BME280;20339;49.754;20.158;2024-01-30T03:38:25;98351.95;;;1.56;62.93
34065;BME280;20339;49.754;20.158;2024-01-30T03:40:58;98344.95;;;1.63;63.04
34065;BME280;20339;49.754;20.158;2024-01-30T03:43:32;98349.27;;;1.61;62.97
34065;BME280;20339;49.754;20.158;2024-01-30T03:46:07;98347.16;;;1.55;63.02
34065;BME280;20339;49.754;20.158;2024-01-30T03:48:40;98339.97;;;1.55;63.24
34065;BME280;20339;49.754;20.158;2024-01-30T03:51:11;98336.45;;;1.56;63.07
34065;BME280;20339;49.754;20.158;2024-01-30T03:53:45;98339.89;;;1.53;63.16
34065;BME280;20339;49.754;20.158;2024-01-30T03:56:18;98341.77;;;1.55;62.88
34065;BME280;20339;49.754;20.158;2024-01-30T03:58:52;98341.80;;;1.56;62.64
34065;BME280;20339;49.754;20.158;2024-01-30T04:01:26;98330.27;;;1.67;62.26
34065;BME280;20339;49.754;20.158;2024-01-30T04:03:57;98339.95;;;1.76;61.98
34065;BME280;20339;49.754;20.158;2024-01-30T04:06:33;98338.55;;;1.76;61.77
34065;BME280;20339;49.754;20.158;2024-01-30T04:09:04;98339.85;;;1.74;61.68
34065;BME280;20339;49.754;20.158;2024-01-30T04:11:35;98335.21;;;1.73;61.73
34065;BME280;20339;49.754;20.158;2024-01-30T04:14:10;98336.73;;;1.72;61.58
34065;BME280;20339;49.754;20.158;2024-01-30T04:16:43;98339.52;;;1.71;61.64
34065;BME280;20339;49.754;20.158;2024-01-30T04:19:19;98345.59;;;1.65;61.71
34065;BME280;20339;49.754;20.158;2024-01-30T04:21:49;98345.81;;;1.68;61.88
34065;BME280;20339;49.754;20.158;2024-01-30T04:24:23;98352.52;;;1.69;62.01
34065;BME280;20339;49.754;20.158;2024-01-30T04:27:04;98352.38;;;1.62;62.10
34065;BME280;20339;49.754;20.158;2024-01-30T04:29:38;98350.64;;;1.61;61.92
34065;BME280;20339;49.754;20.158;2024-01-30T04:32:12;98355.79;;;1.59;62.09
34065;BME280;20339;49.754;20.158;2024-01-30T04:34:46;98346.48;;;1.53;62.29
34065;BME280;20339;49.754;20.158;2024-01-30T04:37:18;98345.77;;;1.52;62.22
34065;BME280;20339;49.754;20.158;2024-01-30T04:39:53;98346.00;;;1.58;62.14
34065;BME280;20339;49.754;20.158;2024-01-30T04:42:27;98345.21;;;1.58;62.21
34065;BME280;20339;49.754;20.158;2024-01-30T04:45:00;98351.66;;;1.60;62.25
34065;BME280;20339;49.754;20.158;2024-01-30T04:47:31;98354.54;;;1.56;62.19
34065;BME280;20339;49.754;20.158;2024-01-30T04:50:08;98358.29;;;1.49;62.36
34065;BME280;20339;49.754;20.158;2024-01-30T04:52:39;98352.71;;;1.45;62.59
34065;BME280;20339;49.754;20.158;2024-01-30T04:55:17;98359.80;;;1.42;62.82
34065;BME280;20339;49.754;20.158;2024-01-30T04:57:54;98367.13;;;1.39;62.85
34065;BME280;20339;49.754;20.158;2024-01-30T05:00:34;98366.27;;;1.36;63.06
34065;BME280;20339;49.754;20.158;2024-01-30T05:03:06;98373.96;;;1.37;63.03
34065;BME280;20339;49.754;20.158;2024-01-30T05:05:39;98376.92;;;1.40;63.15
34065;BME280;20339;49.754;20.158;2024-01-30T05:08:12;98373.35;;;1.36;63.10
34065;BME280;20339;49.754;20.158;2024-01-30T05:10:43;98377.79;;;1.37;62.97
34065;BME280;20339;49.754;20.158;2024-01-30T05:13:17;98374.88;;;1.34;63.19
34065;BME280;20339;49.754;20.158;2024-01-30T05:15:48;98375.64;;;1.33;63.25
34065;BME280;20339;49.754;20.158;2024-01-30T05:18:21;98379.77;;;1.35;63.54
34065;BME280;20339;49.754;20.158;2024-01-30T05:20:54;98381.78;;;1.33;63.53
34065;BME280;20339;49.754;20.158;2024-01-30T05:23:27;98387.48;;;1.26;63.85
34065;BME280;20339;49.754;20.158;2024-01-30T05:26:04;98384.16;;;1.24;63.84
34065;BME280;20339;49.754;20.158;2024-01-30T05:28:35;98391.98;;;1.26;63.74
34065;BME280;20339;49.754;20.158;2024-01-30T05:31:08;98384.81;;;1.20;63.95
34065;BME280;20339;49.754;20.158;2024-01-30T05:33:43;98386.17;;;1.22;63.84
34065;BME280;20339;49.754;20.158;2024-01-30T05:36:17;98379.29;;;1.21;64.12
34065;BME280;20339;49.754;20.158;2024-01-30T05:38:56;98382.71;;;1.25;64.12
34065;BME280;20339;49.754;20.158;2024-01-30T05:41:31;98377.05;;;1.27;63.91
34065;BME280;20339;49.754;20.158;2024-01-30T05:44:07;98377.34;;;1.23;64.00
34065;BME280;20339;49.754;20.158;2024-01-30T05:46:38;98373.09;;;1.20;63.98
34065;BME280;20339;49.754;20.158;2024-01-30T05:49:12;98362.12;;;1.17;64.09
34065;BME280;20339;49.754;20.158;2024-01-30T05:51:49;98368.58;;;1.12;64.44
34065;BME280;20339;49.754;20.158;2024-01-30T05:54:24;98364.89;;;1.08;64.47
34065;BME280;20339;49.754;20.158;2024-01-30T05:56:55;98366.86;;;1.06;64.63
34065;BME280;20339;49.754;20.158;2024-01-30T05:59:29;98365.11;;;1.02;64.62
34065;BME280;20339;49.754;20.158;2024-01-30T06:02:05;98372.02;;;1.01;64.88
34065;BME280;20339;49.754;20.158;2024-01-30T06:04:38;98370.48;;;0.98;64.84
34065;BME280;20339;49.754;20.158;2024-01-30T06:07:13;98374.42;;;0.93;65.09
34065;BME280;20339;49.754;20.158;2024-01-30T06:09:49;98371.58;;;0.91;65.25
34065;BME280;20339;49.754;20.158;2024-01-30T06:12:22;98380.90;;;0.98;65.16
34065;BME280;20339;49.754;20.158;2024-01-30T06:14:56;98385.54;;;1.09;65.19
34065;BME280;20339;49.754;20.158;2024-01-30T06:17:28;98384.84;;;1.12;65.01
34065;BME280;20339;49.754;20.158;2024-01-30T06:19:59;98379.13;;;1.13;64.80
34065;BME280;20339;49.754;20.158;2024-01-30T06:22:33;98386.58;;;1.16;64.73
34065;BME280;20339;49.754;20.158;2024-01-30T06:25:05;98391.41;;;1.23;64.56
34065;BME280;20339;49.754;20.158;2024-01-30T06:27:39;98395.80;;;1.21;64.52
34065;BME280;20339;49.754;20.158;2024-01-30T06:30:13;98394.42;;;1.23;64.53
34065;BME280;20339;49.754;20.158;2024-01-30T06:32:48;98394.18;;;1.25;64.06
34065;BME280;20339;49.754;20.158;2024-01-30T06:35:19;98388.79;;;1.28;63.84
34065;BME280;20339;49.754;20.158;2024-01-30T06:38:01;98382.94;;;1.32;63.57
34065;BME280;20339;49.754;20.158;2024-01-30T06:40:32;98385.75;;;1.35;63.40
34065;BME280;20339;49.754;20.158;2024-01-30T06:43:04;98369.47;;;1.40;63.25
34065;BME280;20339;49.754;20.158;2024-01-30T06:45:42;98377.23;;;1.67;63.17
34065;BME280;20339;49.754;20.158;2024-01-30T06:48:14;98366.63;;;2.03;62.25
34065;BME280;20339;49.754;20.158;2024-01-30T06:50:49;98372.32;;;2.40;62.11
34065;BME280;20339;49.754;20.158;2024-01-30T06:53:21;98371.67;;;2.67;61.08
34065;BME280;20339;49.754;20.158;2024-01-30T06:55:53;98362.02;;;2.86;60.62
34065;BME280;20339;49.754;20.158;2024-01-30T06:58:24;98350.37;;;2.92;59.44
34065;BME280;20339;49.754;20.158;2024-01-30T07:01:00;98356.09;;;2.95;58.91
34065;BME280;20339;49.754;20.158;2024-01-30T07:03:36;98361.84;;;3.07;59.24
34065;BME280;20339;49.754;20.158;2024-01-30T07:06:07;98362.63;;;3.20;58.61
34065;BME280;20339;49.754;20.158;2024-01-30T07:08:38;98357.11;;;3.45;58.77
34065;BME280;20339;49.754;20.158;2024-01-30T07:11:09;98361.89;;;3.68;58.15
34065;BME280;20339;49.754;20.158;2024-01-30T07:13:44;98364.02;;;3.83;57.33
34065;BME280;20339;49.754;20.158;2024-01-30T07:16:19;98361.52;;;3.96;56.04
34065;BME280;20339;49.754;20.158;2024-01-30T07:18:59;98371.00;;;4.08;55.13
34065;BME280;20339;49.754;20.158;2024-01-30T07:21:30;98373.07;;;4.27;55.49
34065;BME280;20339;49.754;20.158;2024-01-30T07:24:01;98376.98;;;4.51;55.02
34065;BME280;20339;49.754;20.158;2024-01-30T07:26:32;98376.41;;;4.72;54.36
34065;BME280;20339;49.754;20.158;2024-01-30T07:29:07;98369.62;;;4.86;54.20
34065;BME280;20339;49.754;20.158;2024-01-30T07:31:41;98374.48;;;5.11;53.59
34065;BME280;20339;49.754;20.158;2024-01-30T07:34:13;98379.90;;;5.29;53.86
34065;BME280;20339;49.754;20.158;2024-01-30T07:36:44;98371.73;;;5.38;53.20
34065;BME280;20339;49.754;20.158;2024-01-30T07:39:19;98373.59;;;5.60;53.16
34065;BME280;20339;49.754;20.158;2024-01-30T07:41:53;98370.96;;;5.68;52.40
34065;BME280;20339;49.754;20.158;2024-01-30T07:44:23;98372.15;;;5.62;50.69
34065;BME280;20339;49.754;20.158;2024-01-30T07:46:59;98370.23;;;5.39;50.13
34065;BME280;20339;49.754;20.158;2024-01-30T07:49:31;98362.13;;;5.29;50.08
34065;BME280;20339;49.754;20.158;2024-01-30T07:52:02;98370.59;;;5.29;50.89
34065;BME280;20339;49.754;20.158;2024-01-30T07:54:36;98368.62;;;5.49;51.36
34065;BME280;20339;49.754;20.158;2024-01-30T07:57:10;98364.86;;;5.49;50.53
34065;BME280;20339;49.754;20.158;2024-01-30T07:59:44;98368.05;;;5.42;50.77
34065;BME280;20339;49.754;20.158;2024-01-30T08:02:18;98367.05;;;5.38;50.32
34065;BME280;20339;49.754;20.158;2024-01-30T08:04:54;98367.12;;;5.51;50.22
34065;BME280;20339;49.754;20.158;2024-01-30T08:07:24;98363.64;;;5.45;49.60
34065;BME280;20339;49.754;20.158;2024-01-30T08:09:58;98371.05;;;5.49;49.90
34065;BME280;20339;49.754;20.158;2024-01-30T08:12:31;98354.13;;;5.65;49.01
34065;BME280;20339;49.754;20.158;2024-01-30T08:15:04;98366.70;;;5.60;48.53
34065;BME280;20339;49.754;20.158;2024-01-30T08:17:38;98365.90;;;5.73;48.55
34065;BME280;20339;49.754;20.158;2024-01-30T08:20:21;98366.25;;;5.85;47.93
34065;BME280;20339;49.754;20.158;2024-01-30T08:22:52;98362.17;;;5.76;47.36
34065;BME280;20339;49.754;20.158;2024-01-30T08:25:29;98367.35;;;5.74;47.65
34065;BME280;20339;49.754;20.158;2024-01-30T08:28:02;98359.34;;;5.72;47.28
34065;BME280;20339;49.754;20.158;2024-01-30T08:30:36;98360.32;;;5.61;47.44
34065;BME280;20339;49.754;20.158;2024-01-30T08:33:10;98365.30;;;5.51;46.79
34065;BME280;20339;49.754;20.158;2024-01-30T08:35:41;98358.86;;;5.57;47.72
34065;BME280;20339;49.754;20.158;2024-01-30T08:38:13;98369.79;;;5.65;47.73
34065;BME280;20339;49.754;20.158;2024-01-30T08:40:44;98363.64;;;5.76;48.01
34065;BME280;20339;49.754;20.158;2024-01-30T08:43:18;98364.84;;;5.73;47.00
34065;BME280;20339;49.754;20.158;2024-01-30T08:45:48;98367.49;;;5.64;47.32
34065;BME280;20339;49.754;20.158;2024-01-30T08:48:22;98360.19;;;5.75;47.70
34065;BME280;20339;49.754;20.158;2024-01-30T08:50:59;98359.43;;;5.69;46.74
34065;BME280;20339;49.754;20.158;2024-01-30T08:53:31;98362.70;;;5.60;46.91
34065;BME280;20339;49.754;20.158;2024-01-30T08:56:06;98365.46;;;5.60;47.34
34065;BME280;20339;49.754;20.158;2024-01-30T08:58:37;98363.15;;;5.56;46.05
34065;BME280;20339;49.754;20.158;2024-01-30T09:01:08;98365.47;;;5.53;47.99
34065;BME280;20339;49.754;20.158;2024-01-30T09:03:39;98359.59;;;5.60;47.44
34065;BME280;20339;49.754;20.158;2024-01-30T09:06:15;98360.66;;;5.48;47.28
34065;BME280;20339;49.754;20.158;2024-01-30T09:08:49;98365.84;;;5.38;47.14
34065;BME280;20339;49.754;20.158;2024-01-30T09:11:24;98370.77;;;5.42;47.72
34065;BME280;20339;49.754;20.158;2024-01-30T09:13:55;98359.48;;;5.53;48.14
34065;BME280;20339;49.754;20.158;2024-01-30T09:16:27;98368.55;;;5.52;47.80
34065;BME280;20339;49.754;20.158;2024-01-30T09:19:08;98363.96;;;5.46;47.30
34065;BME280;20339;49.754;20.158;2024-01-30T09:21:39;98371.88;;;5.20;46.82
34065;BME280;20339;49.754;20.158;2024-01-30T09:24:10;98356.30;;;5.17;47.68
34065;BME280;20339;49.754;20.158;2024-01-30T09:26:41;98356.77;;;5.09;46.85
34065;BME280;20339;49.754;20.158;2024-01-30T09:29:13;98355.83;;;5.05;47.80
34065;BME280;20339;49.754;20.158;2024-01-30T09:31:47;98343.15;;;5.14;47.85
34065;BME280;20339;49.754;20.158;2024-01-30T09:34:18;98347.27;;;5.16;47.87
34065;BME280;20339;49.754;20.158;2024-01-30T09:36:49;98346.11;;;5.25;48.61
34065;BME280;20339;49.754;20.158;2024-01-30T09:39:23;98340.09;;;5.32;47.58
34065;BME280;20339;49.754;20.158;2024-01-30T09:42:04;98334.11;;;5.25;47.66
34065;BME280;20339;49.754;20.158;2024-01-30T09:44:39;98333.21;;;5.27;47.94
34065;BME280;20339;49.754;20.158;2024-01-30T09:47:18;98333.21;;;5.34;47.61
34065;BME280;20339;49.754;20.158;2024-01-30T09:49:50;98322.61;;;5.27;47.36
34065;BME280;20339;49.754;20.158;2024-01-30T09:52:24;98331.47;;;5.21;46.76
34065;BME280;20339;49.754;20.158;2024-01-30T09:54:57;98311.15;;;5.16;47.02
34065;BME280;20339;49.754;20.158;2024-01-30T09:57:30;98311.22;;;5.22;47.21
34065;BME280;20339;49.754;20.158;2024-01-30T10:00:03;98300.85;;;5.27;47.69
34065;BME280;20339;49.754;20.158;2024-01-30T10:02:35;98312.45;;;5.28;47.43
34065;BME280;20339;49.754;20.158;2024-01-30T10:05:11;98297.29;;;5.27;47.73
34065;BME280;20339;49.754;20.158;2024-01-30T10:07:54;98315.52;;;5.39;47.66
34065;BME280;20339;49.754;20.158;2024-01-30T10:10:27;98307.46;;;5.53;47.55
34065;BME280;20339;49.754;20.158;2024-01-30T10:13:00;98308.39;;;5.71;47.77
34065;BME280;20339;49.754;20.158;2024-01-30T10:15:32;98298.60;;;5.75;46.76
34065;BME280;20339;49.754;20.158;2024-01-30T10:18:09;98291.69;;;5.79;46.60
34065;BME280;20339;49.754;20.158;2024-01-30T10:20:45;98288.34;;;5.78;45.83
34065;BME280;20339;49.754;20.158;2024-01-30T10:23:19;98294.00;;;5.79;45.67
34065;BME280;20339;49.754;20.158;2024-01-30T10:25:52;98290.40;;;5.80;46.23
34065;BME280;20339;49.754;20.158;2024-01-30T10:28:26;98281.34;;;5.87;45.79
34065;BME280;20339;49.754;20.158;2024-01-30T10:31:00;98287.88;;;5.95;46.48
34065;BME280;20339;49.754;20.158;2024-01-30T10:33:36;98280.92;;;6.13;46.63
34065;BME280;20339;49.754;20.158;2024-01-30T10:36:10;98275.91;;;6.18;45.74
34065;BME280;20339;49.754;20.158;2024-01-30T10:38:46;98278.19;;;6.22;45.64
34065;BME280;20339;49.754;20.158;2024-01-30T10:41:27;98272.51;;;6.29;45.30
34065;BME280;20339;49.754;20.158;2024-01-30T10:44:08;98280.02;;;6.27;44.67
34065;BME280;20339;49.754;20.158;2024-01-30T10:46:40;98273.50;;;6.33;45.33
34065;BME280;20339;49.754;20.158;2024-01-30T10:49:14;98268.52;;;6.49;45.49
34065;BME280;20339;49.754;20.158;2024-01-30T10:51:51;98256.30;;;6.65;45.01
34065;BME280;20339;49.754;20.158;2024-01-30T10:54:24;98257.27;;;6.68;43.87
34065;BME280;20339;49.754;20.158;2024-01-30T10:56:56;98265.30;;;6.68;43.84
34065;BME280;20339;49.754;20.158;2024-01-30T10:59:31;98251.08;;;6.79;43.99
34065;BME280;20339;49.754;20.158;2024-01-30T11:02:05;98252.23;;;6.80;43.18
34065;BME280;20339;49.754;20.158;2024-01-30T11:04:42;98252.09;;;6.73;43.02
34065;BME280;20339;49.754;20.158;2024-01-30T11:07:24;98249.04;;;6.75;43.83
34065;BME280;20339;49.754;20.158;2024-01-30T11:10:01;98247.91;;;6.89;44.19
34065;BME280;20339;49.754;20.158;2024-01-30T11:12:40;98244.52;;;6.94;43.42
34065;BME280;20339;49.754;20.158;2024-01-30T11:15:15;98236.08;;;6.96;43.20
34065;BME280;20339;49.754;20.158;2024-01-30T11:17:54;98237.98;;;7.06;43.26
34065;BME280;20339;49.754;20.158;2024-01-30T11:20:32;98240.16;;;7.06;42.50
34065;BME280;20339;49.754;20.158;2024-01-30T11:23:09;98230.26;;;6.97;42.58
34065;BME280;20339;49.754;20.158;2024-01-30T11:25:45;98221.25;;;6.94;42.53
34065;BME280;20339;49.754;20.158;2024-01-30T11:28:16;98226.20;;;6.95;43.55
34065;BME280;20339;49.754;20.158;2024-01-30T11:30:48;98223.85;;;6.96;43.47
34065;BME280;20339;49.754;20.158;2024-01-30T11:33:32;98223.17;;;6.96;43.02
34065;BME280;20339;49.754;20.158;2024-01-30T11:36:07;98230.02;;;6.96;43.00
34065;BME280;20339;49.754;20.158;2024-01-30T11:38:42;98231.20;;;7.06;43.52
34065;BME280;20339;49.754;20.158;2024-01-30T11:41:17;98230.53;;;7.09;43.51
34065;BME280;20339;49.754;20.158;2024-01-30T11:43:54;98235.05;;;7.10;43.20
34065;BME280;20339;49.754;20.158;2024-01-30T11:46:28;98231.96;;;7.07;43.59
34065;BME280;20339;49.754;20.158;2024-01-30T11:49:01;98230.85;;;7.12;43.92
34065;BME280;20339;49.754;20.158;2024-01-30T11:51:37;98226.58;;;7.10;43.18
34065;BME280;20339;49.754;20.158;2024-01-30T11:54:11;98222.52;;;7.14;44.11
34065;BME280;20339;49.754;20.158;2024-01-30T11:56:46;98220.66;;;7.18;42.90
34065;BME280;20339;49.754;20.158;2024-01-30T11:59:21;98220.14;;;7.19;43.43
34065;BME280;20339;49.754;20.158;2024-01-30T12:01:54;98224.16;;;7.17;43.10
34065;BME280;20339;49.754;20.158;2024-01-30T12:04:29;98219.62;;;7.17;43.24
34065;BME280;20339;49.754;20.158;2024-01-30T12:07:05;98209.64;;;7.26;43.31
34065;BME280;20339;49.754;20.158;2024-01-30T12:09:41;98213.79;;;7.35;43.21
34065;BME280;20339;49.754;20.158;2024-01-30T12:12:13;98199.86;;;7.39;42.61
34065;BME280;20339;49.754;20.158;2024-01-30T12:14:48;98198.58;;;7.34;42.64
34065;BME280;20339;49.754;20.158;2024-01-30T12:17:28;98198.82;;;7.37;43.36
34065;BME280;20339;49.754;20.158;2024-01-30T12:20:07;98189.52;;;7.44;43.55
34065;BME280;20339;49.754;20.158;2024-01-30T12:22:42;98191.65;;;7.42;42.77
34065;BME280;20339;49.754;20.158;2024-01-30T12:25:17;98187.63;;;7.39;43.66
34065;BME280;20339;49.754;20.158;2024-01-30T12:27:49;98185.42;;;7.44;43.08
34065;BME280;20339;49.754;20.158;2024-01-30T12:30:24;98180.66;;;7.41;43.36
34065;BME280;20339;49.754;20.158;2024-01-30T12:33:00;98187.55;;;7.36;43.18
34065;BME280;20339;49.754;20.158;2024-01-30T12:35:34;98175.98;;;7.38;43.40
34065;BME280;20339;49.754;20.158;2024-01-30T12:38:07;98171.02;;;7.36;43.21
34065;BME280;20339;49.754;20.158;2024-01-30T12:40:40;98168.34;;;7.32;43.61
34065;BME280;20339;49.754;20.158;2024-01-30T12:43:14;98183.56;;;7.32;43.78
34065;BME280;20339;49.754;20.158;2024-01-30T12:45:46;98184.50;;;7.33;43.97
34065;BME280;20339;49.754;20.158;2024-01-30T12:48:17;98180.07;;;7.33;43.67
34065;BME280;20339;49.754;20.158;2024-01-30T12:50:49;98179.64;;;7.30;43.47
34065;BME280;20339;49.754;20.158;2024-01-30T12:53:22;98172.21;;;7.27;43.20
34065;BME280;20339;49.754;20.158;2024-01-30T12:55:58;98172.96;;;7.29;43.20
34065;BME280;20339;49.754;20.158;2024-01-30T12:58:29;98179.42;;;7.34;42.95
34065;BME280;20339;49.754;20.158;2024-01-30T13:01:03;98180.35;;;7.40;43.21
34065;BME280;20339;49.754;20.158;2024-01-30T13:03:34;98181.09;;;7.43;43.24
34065;BME280;20339;49.754;20.158;2024-01-30T13:06:06;98177.58;;;7.46;43.32
34065;BME280;20339;49.754;20.158;2024-01-30T13:08:40;98172.99;;;7.44;42.34
34065;BME280;20339;49.754;20.158;2024-01-30T13:11:13;98174.63;;;7.40;42.42
34065;BME280;20339;49.754;20.158;2024-01-30T13:13:53;98182.29;;;7.39;42.70
34065;BME280;20339;49.754;20.158;2024-01-30T13:16:27;98183.95;;;7.45;43.02
34065;BME280;20339;49.754;20.158;2024-01-30T13:18:58;98169.38;;;7.46;42.85
34065;BME280;20339;49.754;20.158;2024-01-30T13:21:35;98173.08;;;7.45;43.26
34065;BME280;20339;49.754;20.158;2024-01-30T13:24:11;98170.69;;;7.44;42.78
34065;BME280;20339;49.754;20.158;2024-01-30T13:26:57;98166.81;;;7.42;42.48
34065;BME280;20339;49.754;20.158;2024-01-30T13:29:29;98165.46;;;7.43;43.05
34065;BME280;20339;49.754;20.158;2024-01-30T13:32:02;98162.13;;;7.43;42.94
34065;BME280;20339;49.754;20.158;2024-01-30T13:34:35;98161.39;;;7.41;42.79